Time;durP1;ratioP1;P1;durP2;ratioP2;P2;SDS_P1;SDS_P2;PMS_P1;PMS_P2;Temp;Humidity;BMP_temperature;BMP_pressure;BME280_temperature;BME280_humidity;BME280_pressure;Samples;Min_cycle;Max_cycle;Signal;HPM_P1;HPM_P2
2023/06/01 00:02:11;;;;;;;9.05;5.28;;;14.20;99.90;;;;;;5066898;28;20051;-60
2023/06/01 00:04:40;;;;;;;10.27;6.05;;;14.20;99.90;;;;;;5063418;28;20029;-59
2023/06/01 00:07:08;;;;;;;9.85;6.15;;;14.10;99.90;;;;;;5066067;28;20411;-58
2023/06/01 00:09:35;;;;;;;11.25;6.28;;;14.10;99.90;;;;;;5062024;28;20044;-60
2023/06/01 00:12:03;;;;;;;10.68;5.40;;;14.10;99.90;;;;;;5064977;28;20040;-59
2023/06/01 00:14:30;;;;;;;11.23;5.75;;;14.10;99.90;;;;;;5065500;28;20052;-59
2023/06/01 00:16:56;;;;;;;12.43;5.45;;;14.10;99.90;;;;;;5057311;28;20033;-59
2023/06/01 00:19:25;;;;;;;10.85;6.50;;;14.00;99.90;;;;;;5060298;28;20116;-61
2023/06/01 00:21:55;;;;;;;9.77;5.95;;;14.00;99.90;;;;;;5070170;28;20059;-61
2023/06/01 00:24:22;;;;;;;10.07;5.85;;;14.00;99.90;;;;;;5069710;28;20044;-61
2023/06/01 00:26:49;;;;;;;11.15;5.88;;;13.90;99.90;;;;;;5067553;28;20032;-60
2023/06/01 00:29:16;;;;;;;12.38;6.18;;;13.80;99.90;;;;;;5058761;28;20044;-61
2023/06/01 00:31:46;;;;;;;12.80;6.40;;;13.80;99.90;;;;;;5063284;28;20044;-60
2023/06/01 00:34:13;;;;;;;9.90;6.18;;;13.80;99.90;;;;;;5070422;28;20047;-61
2023/06/01 00:36:40;;;;;;;12.90;6.32;;;13.80;99.90;;;;;;5059172;28;20520;-60
2023/06/01 00:39:07;;;;;;;10.40;5.93;;;13.80;99.90;;;;;;5065600;28;20041;-61
2023/06/01 00:41:34;;;;;;;13.20;6.40;;;13.70;99.90;;;;;;5065861;28;20109;-61
2023/06/01 00:44:01;;;;;;;9.48;5.60;;;13.70;99.90;;;;;;5066302;28;20048;-61
2023/06/01 00:46:29;;;;;;;;;;;13.70;99.90;;;;;;5067409;28;20489;-60
2023/06/01 00:48:58;;;;;;;12.93;5.88;;;13.70;99.90;;;;;;5065166;28;19920;-60
2023/06/01 00:51:25;;;;;;;14.35;6.45;;;13.80;99.90;;;;;;5065523;28;20139;-59
2023/06/01 00:53:52;;;;;;;10.60;5.82;;;13.80;99.90;;;;;;5068211;28;20048;-59
2023/06/01 00:56:21;;;;;;;10.05;6.18;;;13.80;99.90;;;;;;5065700;28;20083;-60
2023/06/01 00:58:48;;;;;;;7.60;5.75;;;13.80;99.90;;;;;;5066021;28;20098;-60
2023/06/01 01:01:22;;;;;;;10.55;6.50;;;13.70;99.90;;;;;;5065750;28;20062;-60
2023/06/01 01:03:57;;;;;;;10.20;6.05;;;13.60;99.90;;;;;;5068754;28;20548;-60
2023/06/01 01:06:56;;;;;;;11.02;6.20;;;13.60;99.90;;;;;;5068601;28;20033;-61
2023/06/01 01:09:32;;;;;;;12.75;6.00;;;13.60;99.90;;;;;;5064361;28;20048;-60
2023/06/01 01:12:14;;;;;;;11.88;6.15;;;13.60;99.90;;;;;;5068910;28;20375;-60
2023/06/01 01:14:50;;;;;;;10.35;6.60;;;13.60;99.90;;;;;;5066393;28;20060;-61
2023/06/01 01:17:38;;;;;;;10.18;6.00;;;13.50;99.90;;;;;;5068525;28;20036;-60
2023/06/01 01:20:28;;;;;;;12.43;6.63;;;13.50;99.90;;;;;;5068581;28;20044;-61
2023/06/01 01:23:14;;;;;;;10.80;6.20;;;13.40;99.90;;;;;;5073541;28;20051;-57
2023/06/01 01:26:13;;;;;;;10.27;6.18;;;13.40;99.90;;;;;;5065713;28;20040;-61
2023/06/01 01:28:47;;;;;;;9.93;6.10;;;13.30;99.90;;;;;;5065022;28;20064;-61
2023/06/01 01:31:18;;;;;;;12.32;6.50;;;13.30;99.90;;;;;;5066659;28;20048;-60
2023/06/01 01:33:52;;;;;;;9.80;6.57;;;13.30;99.90;;;;;;5062471;28;20671;-59
2023/06/01 01:36:19;;;;;;;9.68;6.68;;;13.20;99.90;;;;;;5064594;28;20576;-58
2023/06/01 01:38:46;;;;;;;;;;;13.20;99.90;;;;;;5067970;28;20036;-61
2023/06/01 01:41:13;;;;;;;13.80;6.18;;;13.10;99.90;;;;;;5069529;28;19920;-60
2023/06/01 01:43:41;;;;;;;14.13;7.07;;;13.10;99.90;;;;;;5060824;28;20137;-60
2023/06/01 01:46:27;;;;;;;10.23;6.78;;;13.00;99.90;;;;;;5070505;28;20048;-60
2023/06/01 01:49:14;;;;;;;12.35;7.05;;;13.10;99.90;;;;;;5067535;28;20040;-61
2023/06/01 01:52:18;;;;;;;11.00;6.63;;;12.90;99.90;;;;;;5064979;28;20083;-60
2023/06/01 01:54:47;;;;;;;13.93;7.32;;;13.00;99.90;;;;;;5067275;28;20072;-60
2023/06/01 01:57:15;;;;;;;11.43;6.63;;;12.90;99.90;;;;;;5067291;28;20142;-60
2023/06/01 01:59:43;;;;;;;11.95;6.78;;;12.90;99.90;;;;;;5071379;28;20041;-60
2023/06/01 02:02:10;;;;;;;13.00;7.38;;;12.90;99.90;;;;;;5071970;28;20412;-60
2023/06/01 02:04:41;;;;;;;;;;;12.90;99.90;;;;;;5062232;28;20472;-60
2023/06/01 02:07:09;;;;;;;10.20;6.70;;;12.90;99.90;;;;;;5069394;28;20388;-59
2023/06/01 02:09:37;;;;;;;10.18;7.00;;;12.80;99.90;;;;;;5062579;28;20045;-60
2023/06/01 02:12:05;;;;;;;12.23;7.10;;;12.70;99.90;;;;;;5057267;28;20056;-60
2023/06/01 02:14:33;;;;;;;12.23;7.35;;;12.60;99.90;;;;;;5062856;28;20384;-60
2023/06/01 02:17:00;;;;;;;12.38;7.68;;;12.50;99.90;;;;;;5063283;28;20040;-60
2023/06/01 02:19:28;;;;;;;14.15;7.57;;;12.40;99.90;;;;;;5071200;28;20040;-59
2023/06/01 02:21:55;;;;;;;16.92;7.53;;;12.30;99.90;;;;;;5067144;28;20041;-59
2023/06/01 02:24:22;;;;;;;12.52;8.00;;;12.30;99.90;;;;;;5068742;28;20466;-60
2023/06/01 02:26:51;;;;;;;12.68;7.82;;;12.20;99.90;;;;;;5063831;28;20388;-59
2023/06/01 02:29:21;;;;;;;14.15;7.82;;;12.20;99.90;;;;;;5064739;28;20045;-60
2023/06/01 02:31:50;;;;;;;12.88;8.02;;;12.20;99.90;;;;;;5055581;28;20040;-60
2023/06/01 02:34:19;;;;;;;11.50;7.65;;;12.20;99.90;;;;;;5072367;28;20128;-60
2023/06/01 02:36:48;;;;;;;12.68;8.05;;;12.20;99.90;;;;;;5061527;28;20081;-60
2023/06/01 02:39:15;;;;;;;11.20;7.70;;;12.10;99.90;;;;;;5060319;28;20469;-60
2023/06/01 02:41:43;;;;;;;16.55;7.32;;;12.00;99.90;;;;;;5059074;28;20053;-59
2023/06/01 02:44:09;;;;;;;13.63;7.78;;;12.00;99.90;;;;;;5059543;28;20135;-59
2023/06/01 02:46:36;;;;;;;15.30;8.50;;;11.90;99.90;;;;;;5070888;28;20508;-57
2023/06/01 02:49:03;;;;;;;12.65;8.13;;;11.90;99.90;;;;;;5064016;28;20041;-60
2023/06/01 02:51:31;;;;;;;12.93;8.55;;;11.80;99.90;;;;;;5068460;28;20098;-59
2023/06/01 02:54:14;;;;;;;14.65;8.60;;;11.80;99.90;;;;;;5065237;28;20072;-59
2023/06/01 02:56:41;;;;;;;14.55;8.00;;;11.80;99.90;;;;;;5066528;28;20045;-59
2023/06/01 02:59:18;;;;;;;15.43;8.57;;;11.90;99.90;;;;;;5060908;28;20044;-60
2023/06/01 03:02:01;;;;;;;17.73;8.02;;;12.00;99.90;;;;;;5064699;28;20472;-60
2023/06/01 03:04:32;;;;;;;15.65;7.63;;;12.10;99.90;;;;;;5069974;28;20044;-60
2023/06/01 03:07:01;;;;;;;14.27;8.48;;;12.10;99.90;;;;;;5060881;28;20040;-60
2023/06/01 03:09:28;;;;;;;11.85;7.57;;;12.20;99.90;;;;;;5068176;28;20110;-60
2023/06/01 03:12:20;;;;;;;13.57;7.82;;;12.20;99.90;;;;;;5044089;28;20743;-60
2023/06/01 03:14:47;;;;;;;12.77;7.45;;;12.20;99.90;;;;;;5068012;28;20123;-60
2023/06/01 03:17:14;;;;;;;12.82;7.68;;;12.20;99.90;;;;;;5064598;28;20409;-59
2023/06/01 03:19:41;;;;;;;11.63;7.30;;;12.10;99.90;;;;;;5066333;28;20049;-60
2023/06/01 03:22:17;;;;;;;14.00;8.05;;;12.10;99.90;;;;;;5066508;28;20048;-60
2023/06/01 03:24:49;;;;;;;11.93;7.53;;;12.10;99.90;;;;;;5063905;28;20048;-59
2023/06/01 03:27:19;;;;;;;10.95;7.43;;;12.10;99.90;;;;;;5066378;28;20048;-60
2023/06/01 03:29:46;;;;;;;11.98;6.97;;;12.10;99.90;;;;;;5064041;28;20421;-60
2023/06/01 03:32:14;;;;;;;16.25;7.68;;;12.00;99.90;;;;;;5070192;28;20047;-60
2023/06/01 03:34:42;;;;;;;15.88;7.47;;;12.00;99.90;;;;;;5062099;28;20075;-60
2023/06/01 03:37:09;;;;;;;11.77;7.50;;;12.00;99.90;;;;;;5064313;28;20045;-58
2023/06/01 03:39:36;;;;;;;13.88;7.68;;;12.00;99.90;;;;;;5056724;28;20069;-61
2023/06/01 03:42:07;;;;;;;14.32;7.70;;;12.00;99.90;;;;;;5070632;28;20086;-60
2023/06/01 03:44:35;;;;;;;12.82;6.97;;;12.00;99.90;;;;;;5065268;28;20520;-60
2023/06/01 03:47:02;;;;;;;13.63;7.63;;;12.00;99.90;;;;;;5071755;28;20028;-58
2023/06/01 03:49:29;;;;;;;10.95;7.68;;;12.00;99.90;;;;;;5065245;28;20036;-60
2023/06/01 03:51:56;;;;;;;11.30;7.40;;;12.00;99.90;;;;;;5065338;28;20405;-59
2023/06/01 03:54:23;;;;;;;13.95;8.45;;;12.00;99.90;;;;;;5063775;28;20080;-61
2023/06/01 03:56:50;;;;;;;16.10;8.75;;;11.90;99.90;;;;;;5061245;28;20525;-60
2023/06/01 03:59:17;;;;;;;15.15;8.25;;;11.80;99.90;;;;;;5068152;28;20158;-60
2023/06/01 04:01:48;;;;;;;13.15;8.27;;;11.70;99.90;;;;;;5060780;28;20049;-60
2023/06/01 04:04:16;;;;;;;13.23;8.18;;;11.60;99.90;;;;;;5065483;28;20044;-59
2023/06/01 04:06:45;;;;;;;12.90;8.02;;;11.50;99.90;;;;;;5069862;28;20124;-60
2023/06/01 04:09:14;;;;;;;13.40;8.05;;;11.60;99.90;;;;;;5068429;28;20496;-58
2023/06/01 04:11:42;;;;;;;10.60;7.43;;;11.60;99.90;;;;;;5068944;28;20036;-60
2023/06/01 04:14:09;;;;;;;14.32;8.38;;;11.70;99.90;;;;;;5064153;28;20128;-58
2023/06/01 04:16:36;;;;;;;14.07;7.85;;;11.80;99.90;;;;;;5065168;28;20050;-60
2023/06/01 04:19:03;;;;;;;14.75;8.60;;;11.90;99.90;;;;;;5055136;28;20048;-59
2023/06/01 04:21:32;;;;;;;12.30;7.47;;;11.90;99.90;;;;;;5062947;28;20094;-60
2023/06/01 04:23:59;;;;;;;13.07;8.27;;;12.00;99.90;;;;;;5065893;28;20082;-60
2023/06/01 04:26:27;;;;;;;;;;;12.00;99.90;;;;;;5057222;28;20135;-60
2023/06/01 04:28:56;;;;;;;19.83;9.13;;;12.10;99.90;;;;;;5067548;28;20014;-59
2023/06/01 04:31:23;;;;;;;12.68;8.02;;;12.10;99.90;;;;;;5081818;28;20053;-60
2023/06/01 04:33:53;;;;;;;12.32;7.93;;;12.20;99.90;;;;;;5068986;28;20052;-59
2023/06/01 04:36:29;;;;;;;15.27;9.13;;;12.20;99.90;;;;;;5057493;28;20051;-59
2023/06/01 04:38:58;;;;;;;13.70;7.93;;;12.40;99.90;;;;;;5058651;28;20032;-60
2023/06/01 04:41:26;;;;;;;15.68;8.63;;;12.50;99.90;;;;;;5063774;28;20123;-60
2023/06/01 04:43:53;;;;;;;16.80;9.00;;;12.60;99.90;;;;;;5066651;28;20047;-59
2023/06/01 04:46:23;;;;;;;18.25;9.77;;;12.70;99.90;;;;;;5063280;28;20541;-60
2023/06/01 04:48:53;;;;;;;13.70;8.85;;;12.80;99.90;;;;;;5068512;28;20040;-61
2023/06/01 04:51:20;;;;;;;12.55;8.35;;;12.90;99.90;;;;;;5066576;28;20040;-61
2023/06/01 04:53:49;;;;;;;14.32;8.30;;;13.20;99.90;;;;;;5069040;28;20519;-60
2023/06/01 04:56:17;;;;;;;13.05;8.68;;;13.00;99.90;;;;;;5065805;28;20047;-60
2023/06/01 04:58:46;;;;;;;17.13;9.30;;;13.00;99.90;;;;;;5070369;28;20560;-62
2023/06/01 05:01:15;;;;;;;16.65;8.80;;;13.00;99.90;;;;;;5063988;28;20072;-61
2023/06/01 05:03:45;;;;;;;14.38;8.95;;;13.10;99.90;;;;;;5068697;28;20050;-61
2023/06/01 05:06:13;;;;;;;14.77;8.48;;;13.10;99.90;;;;;;5065836;28;20037;-61
2023/06/01 05:08:41;;;;;;;16.42;8.50;;;13.20;99.90;;;;;;5068322;28;20041;-61
2023/06/01 05:11:09;;;;;;;13.02;8.07;;;13.30;99.90;;;;;;5068109;28;20528;-62
2023/06/01 05:13:38;;;;;;;12.52;8.23;;;13.30;99.90;;;;;;5048617;28;20044;-61
2023/06/01 05:16:07;;;;;;;16.92;8.77;;;13.40;99.90;;;;;;5068445;28;20127;-60
2023/06/01 05:18:35;;;;;;;12.90;8.75;;;13.40;99.90;;;;;;5064800;28;20041;-61
2023/06/01 05:21:02;;;;;;;13.45;9.00;;;13.40;99.90;;;;;;5057711;28;20071;-60
2023/06/01 05:23:31;;;;;;;14.80;9.02;;;13.50;99.90;;;;;;5061547;28;20043;-61
2023/06/01 05:26:05;;;;;;;18.45;8.80;;;13.50;99.90;;;;;;5070912;28;20094;-61
2023/06/01 05:28:36;;;;;;;14.73;8.32;;;13.60;99.90;;;;;;5069433;28;20054;-59
2023/06/01 05:31:06;;;;;;;13.98;8.60;;;13.60;99.90;;;;;;5068599;28;20039;-60
2023/06/01 05:33:39;;;;;;;13.30;8.77;;;13.60;99.90;;;;;;5064476;28;20067;-60
2023/06/01 05:36:06;;;;;;;14.15;8.32;;;13.70;99.90;;;;;;5071881;28;20043;-61
2023/06/01 05:38:33;;;;;;;18.25;8.68;;;13.80;99.90;;;;;;5063593;28;20052;-61
2023/06/01 05:41:01;;;;;;;14.75;8.55;;;13.90;99.90;;;;;;5071901;28;20047;-61
2023/06/01 05:43:28;;;;;;;15.10;7.90;;;14.00;99.90;;;;;;5070357;28;20086;-61
2023/06/01 05:45:57;;;;;;;16.27;8.10;;;14.00;99.90;;;;;;5067596;28;20442;-60
2023/06/01 05:48:23;;;;;;;16.83;8.70;;;14.00;99.90;;;;;;5063472;28;20079;-65
2023/06/01 05:50:53;;;;;;;12.48;8.32;;;14.00;99.90;;;;;;5071694;28;20036;-59
2023/06/01 05:53:23;;;;;;;17.27;9.30;;;14.10;99.90;;;;;;5072557;28;20046;-59
2023/06/01 05:55:51;;;;;;;21.38;9.15;;;14.10;99.90;;;;;;5054578;28;20045;-60
2023/06/01 05:58:19;;;;;;;15.43;9.02;;;14.20;99.90;;;;;;5067454;28;20071;-61
2023/06/01 06:00:46;;;;;;;13.07;8.38;;;14.30;99.90;;;;;;5070888;28;20075;-61
2023/06/01 06:03:13;;;;;;;15.70;8.07;;;14.30;99.90;;;;;;5074356;28;20286;-61
2023/06/01 06:05:40;;;;;;;12.50;8.13;;;14.40;99.90;;;;;;5073457;28;20052;-60
2023/06/01 06:08:07;;;;;;;13.38;7.63;;;14.50;99.90;;;;;;5071150;28;20032;-61
2023/06/01 06:10:34;;;;;;;16.75;8.75;;;14.60;99.90;;;;;;5070488;28;20036;-61
2023/06/01 06:13:00;;;;;;;12.52;8.02;;;14.60;99.90;;;;;;5073894;28;20683;-60
2023/06/01 06:15:27;;;;;;;15.90;9.15;;;14.70;99.90;;;;;;5073049;28;20047;-59
2023/06/01 06:17:54;;;;;;;20.48;9.35;;;14.80;99.90;;;;;;5070889;28;20132;-59
2023/06/01 06:20:22;;;;;;;13.75;8.10;;;14.90;99.90;;;;;;5063484;28;20547;-61
2023/06/01 06:22:52;;;;;;;12.27;7.88;;;14.90;99.90;;;;;;5073804;28;20052;-61
2023/06/01 06:25:19;;;;;;;17.85;8.25;;;15.00;99.90;;;;;;5069370;28;20045;-61
2023/06/01 06:27:47;;;;;;;15.18;8.80;;;15.10;99.90;;;;;;5072504;28;20045;-60
2023/06/01 06:30:14;;;;;;;11.85;8.23;;;15.20;99.90;;;;;;5071263;28;20033;-60
2023/06/01 06:32:41;;;;;;;14.15;8.90;;;15.30;99.90;;;;;;5072338;28;20047;-60
2023/06/01 06:35:08;;;;;;;17.67;9.18;;;15.40;99.90;;;;;;5061891;28;20421;-59
2023/06/01 06:37:35;;;;;;;;;;;15.50;99.90;;;;;;5073431;28;20052;-61
2023/06/01 06:40:03;;;;;;;16.38;8.77;;;15.70;99.90;;;;;;5064527;28;20315;-60
2023/06/01 06:42:30;;;;;;;13.98;8.05;;;15.80;99.90;;;;;;5071655;28;20055;-60
2023/06/01 06:44:57;;;;;;;16.20;8.85;;;16.00;99.90;;;;;;5067285;28;20277;-60
2023/06/01 06:47:24;;;;;;;;;;;16.20;99.90;;;;;;5073142;28;20040;-60
2023/06/01 06:49:51;;;;;;;12.85;8.38;;;16.30;99.90;;;;;;5071995;28;20315;-59
2023/06/01 06:52:18;;;;;;;15.48;8.48;;;16.40;99.90;;;;;;5067439;28;20485;-59
2023/06/01 06:54:45;;;;;;;17.40;8.25;;;16.60;99.90;;;;;;5072064;28;20040;-60
2023/06/01 06:57:12;;;;;;;19.58;8.73;;;16.60;99.90;;;;;;5072082;28;20043;-61
2023/06/01 06:59:39;;;;;;;26.88;9.45;;;16.80;99.90;;;;;;5067779;28;20041;-60
2023/06/01 07:02:06;;;;;;;20.40;8.82;;;16.90;99.90;;;;;;5066849;28;20036;-58
2023/06/01 07:04:33;;;;;;;16.95;7.95;;;17.00;99.90;;;;;;5072545;28;20551;-59
2023/06/01 07:07:00;;;;;;;12.55;8.20;;;17.20;99.90;;;;;;5071962;28;20501;-61
2023/06/01 07:09:27;;;;;;;16.13;8.00;;;17.40;99.90;;;;;;5069019;28;20379;-60
2023/06/01 07:11:54;;;;;;;15.57;8.65;;;17.50;99.90;;;;;;5071890;28;20044;-59
2023/06/01 07:14:20;;;;;;;13.90;7.30;;;17.60;99.90;;;;;;5072658;28;20050;-60
2023/06/01 07:16:47;;;;;;;11.38;6.93;;;17.70;99.90;;;;;;5071877;28;20457;-59
2023/06/01 07:19:14;;;;;;;11.73;7.28;;;17.80;99.90;;;;;;5062721;28;20557;-60
2023/06/01 07:21:41;;;;;;;12.43;7.70;;;18.00;99.90;;;;;;5064222;28;20045;-60
2023/06/01 07:24:10;;;;;;;17.65;7.18;;;18.00;99.90;;;;;;5071789;28;20123;-59
2023/06/01 07:26:37;;;;;;;16.20;7.65;;;18.20;99.90;;;;;;5070360;28;20048;-61
2023/06/01 07:29:04;;;;;;;16.90;8.02;;;18.40;99.90;;;;;;5071882;28;20040;-60
2023/06/01 07:31:32;;;;;;;12.32;6.63;;;18.40;99.90;;;;;;5065233;28;20045;-59
2023/06/01 07:33:58;;;;;;;13.75;7.70;;;18.50;99.90;;;;;;5071744;28;20052;-60
2023/06/01 07:36:26;;;;;;;16.27;7.63;;;18.70;99.90;;;;;;5071272;28;20157;-60
2023/06/01 07:38:52;;;;;;;12.68;6.80;;;18.80;99.90;;;;;;5071757;28;20048;-61
2023/06/01 07:41:19;;;;;;;15.90;7.88;;;18.80;99.90;;;;;;5068780;28;20040;-60
2023/06/01 07:43:46;;;;;;;15.45;8.18;;;19.00;99.90;;;;;;5071484;28;20047;-60
2023/06/01 07:46:13;;;;;;;12.73;8.05;;;19.20;99.90;;;;;;5067392;28;20393;-59
2023/06/01 07:48:40;;;;;;;13.13;7.57;;;19.30;99.90;;;;;;5053147;28;20124;-61
2023/06/01 07:51:07;;;;;;;13.52;8.32;;;19.40;99.90;;;;;;5071201;28;20040;-60
2023/06/01 07:53:35;;;;;;;;;;;19.50;99.90;;;;;;5071546;28;20055;-60
2023/06/01 07:56:02;;;;;;;12.70;7.50;;;19.60;99.90;;;;;;5067918;28;19920;-60
2023/06/01 07:58:29;;;;;;;12.45;6.97;;;19.50;99.90;;;;;;5071538;28;20759;-61
2023/06/01 08:00:56;;;;;;;13.05;7.30;;;19.60;99.90;;;;;;5065993;28;20049;-59
2023/06/01 08:03:25;;;;;;;13.10;7.78;;;19.80;99.90;;;;;;5071542;28;20047;-59
2023/06/01 08:05:57;;;;;;;13.40;7.30;;;19.80;99.90;;;;;;5070737;28;20404;-59
2023/06/01 08:08:24;;;;;;;10.75;6.70;;;19.80;99.90;;;;;;5071851;28;20040;-60
2023/06/01 08:10:52;;;;;;;25.00;8.48;;;19.90;99.90;;;;;;5061531;28;20045;-61
2023/06/01 08:13:20;;;;;;;11.85;7.75;;;19.90;99.90;;;;;;5071364;28;20051;-60
2023/06/01 08:15:47;;;;;;;14.15;7.10;;;20.00;99.90;;;;;;5065820;28;20055;-59
2023/06/01 08:18:15;;;;;;;13.23;7.60;;;20.10;99.90;;;;;;5071095;28;20072;-59
2023/06/01 08:20:44;;;;;;;11.93;7.32;;;20.20;99.90;;;;;;5070005;28;20052;-60
2023/06/01 08:23:10;;;;;;;13.32;7.38;;;20.20;99.90;;;;;;5066235;28;20047;-59
2023/06/01 08:25:38;;;;;;;14.80;7.72;;;20.30;99.90;;;;;;5066216;28;20146;-60
2023/06/01 08:28:05;;;;;;;13.63;8.30;;;20.40;99.90;;;;;;5070967;28;20051;-60
2023/06/01 08:30:32;;;;;;;18.92;9.13;;;20.40;99.90;;;;;;5069560;28;20051;-61
2023/06/01 08:32:58;;;;;;;14.73;9.13;;;20.50;99.90;;;;;;5070497;28;20114;-61
2023/06/01 08:35:25;;;;;;;16.20;9.65;;;20.40;99.90;;;;;;5065175;28;20064;-61
2023/06/01 08:37:52;;;;;;;17.77;8.68;;;20.40;99.90;;;;;;5070599;28;20072;-59
2023/06/01 08:40:19;;;;;;;13.88;8.35;;;20.40;99.90;;;;;;5070818;28;20044;-60
2023/06/01 08:43:07;;;;;;;12.32;7.88;;;20.50;99.90;;;;;;5067501;28;20045;-61
2023/06/01 08:45:33;;;;;;;11.23;8.30;;;20.70;99.90;;;;;;5071530;28;20041;-60
2023/06/01 08:48:02;;;;;;;11.20;7.55;;;20.90;99.90;;;;;;5064935;28;20044;-61
2023/06/01 08:50:29;;;;;;;12.15;7.38;;;21.10;99.90;;;;;;5070714;28;20045;-61
2023/06/01 08:52:59;;;;;;;11.55;7.22;;;21.20;99.90;;;;;;5070101;28;20032;-59
2023/06/01 08:55:26;;;;;;;11.52;7.65;;;21.30;99.90;;;;;;5070967;28;20052;-60
2023/06/01 08:57:54;;;;;;;16.35;8.00;;;21.20;99.90;;;;;;5064287;28;20045;-61
2023/06/01 09:00:21;;;;;;;13.32;8.40;;;21.20;99.90;;;;;;5069025;28;20055;-60
2023/06/01 09:02:49;;;;;;;10.82;7.70;;;21.20;99.90;;;;;;5074257;28;20040;-60
2023/06/01 09:05:17;;;;;;;13.55;7.57;;;21.20;99.90;;;;;;5073320;28;20105;-61
2023/06/01 09:07:44;;;;;;;11.65;7.00;;;21.30;99.90;;;;;;5073128;28;20509;-60
2023/06/01 09:10:11;;;;;;;17.70;7.65;;;21.50;99.90;;;;;;5060914;28;20055;-60
2023/06/01 09:12:50;;;;;;;12.98;6.45;;;21.60;99.90;;;;;;5074669;28;20040;-60
2023/06/01 09:15:18;;;;;;;12.60;7.40;;;21.60;99.90;;;;;;5074194;28;20350;-61
2023/06/01 09:17:47;;;;;;;14.48;7.97;;;21.80;99.90;;;;;;5066720;28;20100;-60
2023/06/01 09:20:24;;;;;;;13.77;7.05;;;21.80;99.90;;;;;;5072423;28;20040;-59
2023/06/01 09:22:50;;;;;;;10.80;6.75;;;21.80;99.90;;;;;;5071445;28;20497;-59
2023/06/01 09:25:31;;;;;;;13.50;7.22;;;21.90;99.90;;;;;;5072713;28;20044;-59
2023/06/01 09:28:00;;;;;;;12.10;6.72;;;22.20;99.90;;;;;;5072287;28;20491;-61
2023/06/01 09:30:47;;;;;;;11.57;7.57;;;22.20;99.90;;;;;;5073368;28;20046;-60
2023/06/01 09:33:16;;;;;;;13.43;7.70;;;22.20;99.90;;;;;;5065094;28;20115;-60
2023/06/01 09:35:46;;;;;;;16.25;6.88;;;22.30;99.90;;;;;;5070412;28;20496;-61
2023/06/01 09:38:24;;;;;;;11.93;6.88;;;22.50;99.90;;;;;;5073554;28;20051;-60
2023/06/01 09:41:00;;;;;;;14.43;7.88;;;22.50;99.90;;;;;;5065198;28;20132;-60
2023/06/01 09:43:27;;;;;;;17.33;7.63;;;22.70;99.90;;;;;;5073079;28;20080;-60
2023/06/01 09:46:09;;;;;;;;;;;22.60;99.90;;;;;;5065748;28;20048;-61
2023/06/01 09:48:36;;;;;;;13.43;7.45;;;22.40;99.90;;;;;;5073968;28;20278;-60
2023/06/01 09:51:04;;;;;;;14.75;7.35;;;22.30;99.90;;;;;;5070652;28;20090;-61
2023/06/01 09:53:41;;;;;;;16.73;7.38;;;22.40;99.90;;;;;;5068174;28;20040;-59
2023/06/01 09:56:07;;;;;;;13.43;7.30;;;22.50;99.90;;;;;;5072678;28;20080;-61
2023/06/01 09:58:39;;;;;;;12.07;6.15;;;22.50;99.90;;;;;;5073749;28;20053;-59
2023/06/01 10:01:11;;;;;;;9.02;6.68;;;22.70;99.90;;;;;;5063686;28;20475;-58
2023/06/01 10:03:42;;;;;;;17.73;6.65;;;22.80;99.90;;;;;;5069044;28;20493;-61
2023/06/01 10:06:14;;;;;;;12.88;6.05;;;23.00;99.90;;;;;;5073154;28;20024;-59
2023/06/01 10:08:42;;;;;;;10.45;6.15;;;23.10;99.90;;;;;;5073821;28;20036;-59
2023/06/01 10:11:09;;;;;;;14.65;6.95;;;23.20;99.90;;;;;;5064254;28;20068;-60
2023/06/01 10:13:36;;;;;;;13.18;7.35;;;23.20;99.90;;;;;;5073576;28;20375;-59
2023/06/01 10:16:03;;;;;;;14.93;6.85;;;23.30;99.90;;;;;;5073171;28;20405;-61
2023/06/01 10:18:31;;;;;;;12.45;6.10;;;23.40;99.90;;;;;;5067058;28;20553;-59
2023/06/01 10:20:59;;;;;;;8.77;6.63;;;23.40;99.90;;;;;;5071251;28;20058;-60
2023/06/01 10:23:26;;;;;;;12.05;6.97;;;23.40;99.90;;;;;;5072905;28;20560;-60
2023/06/01 10:26:04;;;;;;;12.00;6.78;;;23.40;99.90;;;;;;5067414;28;20036;-60
2023/06/01 10:28:35;;;;;;;11.65;6.68;;;23.30;99.90;;;;;;5073119;28;20040;-60
2023/06/01 10:31:38;;;;;;;9.73;7.18;;;23.30;99.90;;;;;;5072504;28;20070;-59
2023/06/01 10:34:06;;;;;;;16.35;7.20;;;23.40;99.90;;;;;;5065047;28;20043;-60
2023/06/01 10:36:51;;;;;;;12.55;7.22;;;23.50;99.90;;;;;;5072998;28;20045;-60
2023/06/01 10:39:26;;;;;;;13.70;6.78;;;23.60;99.90;;;;;;5072890;28;20051;-61
2023/06/01 10:42:17;;;;;;;11.45;6.75;;;23.70;99.90;;;;;;5072863;28;20056;-59
2023/06/01 10:44:48;;;;;;;11.20;6.53;;;23.60;99.90;;;;;;5062360;28;20097;-61
2023/06/01 10:47:18;;;;;;;11.20;7.07;;;23.60;99.90;;;;;;5072634;28;20071;-60
2023/06/01 10:49:51;;;;;;;11.93;7.78;;;23.70;99.90;;;;;;5072765;28;20052;-59
2023/06/01 10:52:26;;;;;;;14.93;6.80;;;23.70;99.90;;;;;;5059536;28;20040;-60
2023/06/01 10:55:11;;;;;;;11.02;7.35;;;23.90;99.90;;;;;;5068999;28;20049;-60
2023/06/01 10:57:39;;;;;;;10.25;7.07;;;24.00;99.90;;;;;;5072313;28;20378;-60
2023/06/01 11:00:27;;;;;;;14.63;7.03;;;24.20;99.90;;;;;;5072662;28;20037;-60
2023/06/01 11:03:02;;;;;;;11.75;7.20;;;24.10;99.90;;;;;;5065314;28;20055;-59
2023/06/01 11:05:49;;;;;;;10.63;7.43;;;24.00;99.90;;;;;;5072674;28;20052;-61
2023/06/01 11:08:21;;;;;;;11.48;7.30;;;24.10;99.90;;;;;;5067995;28;20481;-60
2023/06/01 11:10:51;;;;;;;10.48;6.90;;;24.20;99.90;;;;;;5072534;28;20102;-59
2023/06/01 11:13:19;;;;;;;14.18;7.47;;;24.40;99.90;;;;;;5058169;28;20041;-61
2023/06/01 11:16:18;;;;;;;16.27;7.28;;;24.30;99.90;;;;;;5068150;28;20483;-60
2023/06/01 11:18:59;;;;;;;13.45;7.15;;;24.40;99.90;;;;;;5070905;28;20056;-60
2023/06/01 11:21:30;;;;;;;11.23;7.07;;;24.50;99.90;;;;;;5064864;28;20487;-61
2023/06/01 11:23:58;;;;;;;14.98;6.78;;;24.60;99.90;;;;;;5068854;28;20044;-59
2023/06/01 11:26:34;;;;;;;13.65;7.75;;;24.60;99.90;;;;;;5065170;28;20047;-59
2023/06/01 11:29:11;;;;;;;19.08;7.60;;;24.60;99.90;;;;;;5071157;28;20060;-61
2023/06/01 11:31:59;;;;;;;10.98;7.63;;;24.60;99.90;;;;;;5071963;28;20479;-60
2023/06/01 11:34:38;;;;;;;18.63;7.80;;;24.60;99.90;;;;;;5061705;28;20048;-61
2023/06/01 11:37:17;;;;;;;10.50;7.22;;;24.60;99.90;;;;;;5070104;28;20048;-60
2023/06/01 11:39:47;;;;;;;10.52;6.63;;;24.60;99.90;;;;;;5071769;28;20044;-59
2023/06/01 11:42:19;;;;;;;14.15;6.75;;;24.80;99.90;;;;;;5072165;28;20052;-60
2023/06/01 11:44:56;;;;;;;8.98;6.75;;;24.80;99.90;;;;;;5068635;28;20047;-61
2023/06/01 11:47:28;;;;;;;11.18;7.30;;;24.80;98.30;;;;;;5062352;28;20505;-60
2023/06/01 11:49:55;;;;;;;11.30;6.90;;;24.90;99.80;;;;;;5052133;28;20124;-60
2023/06/01 11:52:22;;;;;;;13.30;7.43;;;25.00;99.90;;;;;;5071486;28;20040;-59
2023/06/01 11:54:51;;;;;;;12.00;7.65;;;25.00;99.70;;;;;;5071374;28;20041;-59
2023/06/01 11:57:19;;;;;;;14.05;7.63;;;25.00;99.10;;;;;;5064869;28;20520;-60
2023/06/01 11:59:48;;;;;;;16.02;7.53;;;25.10;99.90;;;;;;5071529;28;20047;-59
2023/06/01 12:02:24;;;;;;;11.93;8.15;;;25.20;99.90;;;;;;5067255;28;20044;-61
2023/06/01 12:05:13;;;;;;;23.35;7.45;;;25.10;98.80;;;;;;5067539;28;20078;-61
2023/06/01 12:07:50;;;;;;;12.80;7.20;;;25.10;99.20;;;;;;5065546;28;20414;-61
2023/06/01 12:10:19;;;;;;;15.23;6.68;;;25.00;98.50;;;;;;5071425;28;20505;-60
2023/06/01 12:12:47;;;;;;;10.85;6.82;;;25.00;98.10;;;;;;5068462;28;20075;-60
2023/06/01 12:15:15;;;;;;;14.20;6.28;;;25.10;97.50;;;;;;5063506;28;20047;-60
2023/06/01 12:17:46;;;;;;;11.63;6.95;;;25.00;97.90;;;;;;5071120;28;20497;-60
2023/06/01 12:20:13;;;;;;;12.27;6.88;;;25.20;97.60;;;;;;5070717;28;20083;-61
2023/06/01 12:22:40;;;;;;;;;;;25.30;97.40;;;;;;5071604;28;20485;-60
2023/06/01 12:25:08;;;;;;;13.95;6.45;;;25.20;95.80;;;;;;5060328;28;19928;-61
2023/06/01 12:27:37;;;;;;;10.10;6.82;;;25.40;97.40;;;;;;5070977;28;20041;-60
2023/06/01 12:30:20;;;;;;;11.43;6.78;;;25.60;95.80;;;;;;5070628;28;20405;-61
2023/06/01 12:32:47;;;;;;;10.55;6.20;;;25.50;95.80;;;;;;5064312;28;20025;-61
2023/06/01 12:35:13;;;;;;;;;;;25.70;96.80;;;;;;5070481;28;20079;-61
2023/06/01 12:37:40;;;;;;;9.15;6.72;;;25.60;96.60;;;;;;5062167;28;19928;-60
2023/06/01 12:40:09;;;;;;;8.93;6.35;;;25.60;96.00;;;;;;5071012;28;20054;-61
2023/06/01 12:42:40;;;;;;;9.00;6.40;;;25.60;95.10;;;;;;5069397;28;20072;-61
2023/06/01 12:45:07;;;;;;;14.25;6.68;;;25.60;94.90;;;;;;5065490;28;20045;-61
2023/06/01 12:47:41;;;;;;;10.40;5.88;;;25.60;95.10;;;;;;5070838;28;20075;-61
2023/06/01 12:50:11;;;;;;;12.48;6.50;;;25.60;94.70;;;;;;5070303;28;20072;-61
2023/06/01 12:52:42;;;;;;;12.02;6.50;;;25.70;94.70;;;;;;5070958;28;20097;-61
2023/06/01 12:55:09;;;;;;;11.05;6.63;;;25.70;93.30;;;;;;5068873;28;20036;-60
2023/06/01 12:57:37;;;;;;;9.57;6.45;;;25.80;94.00;;;;;;5065329;28;20044;-61